Terminal Aerodrome Forecast
Issued by NWS

Home | Current Version | Previous Version | Text Only | Print | Product List | Glossary On
Versions: 1 2 3 4 5 6 7 8 9 10 11 12 13 14 15 16 17 18 19 20
000
FTUS45 KBOU 232339
TAFBJC
TAF
KBJC 232339Z 2400/2424 23010KT P6SM SCT080 SCT120 OVC200
     FM240200 28009KT P6SM FEW080 SCT120 BKN200
     FM240700 20007KT P6SM FEW080 SCT120 BKN180
     FM241200 36010KT P6SM SCT060 BKN080 BKN110
     FM241500 33014G22KT P6SM SCT050 BKN070 BKN100
      TEMPO 2415/2418 BKN050
     FM241900 03012KT P6SM VCSH SCT060 BKN080 BKN140=

USA.gov is the U.S. government's official web portal to all federal, state and local government web resources and services.